サンパウロ/グアルーリョス の空港の天気 - METARとTAF

グアルーリョス国際空港 (サンパウロ) ( SBGR / GRU ) - ブラジル サンパウロ州サンパウロ市
飛行場実況気象(Metar)
観測時間01/20 00:00 BRST (01/20 02:00 UTC)
風向・風速東北東 2m/s
視程10km以上
天気現象
全天の4割程度の雲 雲底高度 1220m
少しの雲 雲底高度 1520m
全天の4割程度の雲 雲底高度 2440m
気温24℃
湿度78%
気圧1017hPa
METARSBGR 200200Z 07004KT 9999 TS SCT040 FEW050CB SCT080 24/20 Q1017
過去の天気等 Google飛行場航空写真 Wunderground天気予報

過去48時間のMETAR

飛行場予報(TAF)
発表時間: 1/19 22:00 BRST (1/20 00:00 UTC)
予報対象時間: 19日22時 BRST ~ 21日4時 BRST
風向・風速北 3m/s
視程9000m
全天の8割程度の雲 雲底高度 1430m
19日22時 BRST から 確率 30% で
風向・風速西南西 6m/s
天気現象雷雨
全天の8割程度の雲 雲底高度 910m
少しの積乱雲 雲底高度 1370m
20日1時 BRST ~ 20日3時 BRST に徐々に
風向・風速南南西 2m/s
全天の8割程度の雲 雲底高度 340m
20日6時 BRST から 確率 30% で
視程4000m
天気現象雨 もや
20日10時 BRST ~ 20日12時 BRST に徐々に
風向・風速南 3m/s
視程10km以上
全天の8割程度の雲 雲底高度 580m
20日13時 BRST から 確率 30% で
全天の8割程度の雲 雲底高度 1010m
20日16時 BRST から 確率 30% で
風向・風速南南東 5m/s
視程3000m
天気現象雷雨 もや
全天の8割程度の雲 雲底高度 460m
少しの積乱雲 雲底高度 1220m
20日18時 BRST ~ 20日20時 BRST に徐々に
風向・風速南南東 3m/s
視程4000m
天気現象
全天の8割程度の雲 雲底高度 400m
20日22時 BRST ~ 20日24時 BRST に徐々に
視程10km以上
天気現象運行に影響にある天気現象が終了
全天の8割程度の雲 雲底高度 340m
TAF SBGR 200000Z 2000/2106 35005KT 9000 BKN047 TN22/2008Z TX26/2016Z
PROB30 2000/2003 24012KT TSRA BKN030 FEW045CB
BECMG 2003/2005 21003KT BKN011
PROB30 2008/2010 4000 RA BR
BECMG 2012/2014 17006KT 9999 BKN019
PROB30 2015/2018 BKN033
PROB30 2018/2020 15010KT 3000 TSRA BR BKN015 FEW040CB
BECMG 2020/2022 15005KT 4000 RA BKN013
BECMG 2100/2102 9999 NSW BKN011 RMK PGE